createdAt,value
2023-03-06T00:01:28.455Z,5.04
2023-03-06T00:06:33.936Z,5.03
2023-03-06T00:11:37.341Z,5.04
2023-03-06T00:16:40.528Z,5.05
2023-03-06T00:21:44.937Z,5.04
2023-03-06T00:26:48.020Z,5.02
2023-03-06T00:31:51.391Z,5.02
2023-03-06T00:36:56.056Z,5.01
2023-03-06T00:41:59.193Z,5.02
2023-03-06T00:47:02.572Z,4.96
2023-03-06T00:52:07.582Z,4.97
2023-03-06T00:57:11.223Z,4.94
2023-03-06T01:02:14.729Z,4.96
2023-03-06T01:07:19.200Z,4.95
2023-03-06T01:12:23.607Z,4.92
2023-03-06T01:17:26.929Z,4.90
2023-03-06T01:22:31.446Z,4.85
2023-03-06T01:27:34.732Z,4.85
2023-03-06T01:32:38.101Z,4.86
2023-03-06T01:37:43.020Z,4.84
2023-03-06T01:42:46.932Z,4.84
2023-03-06T01:47:50.285Z,4.79
2023-03-06T01:52:58.885Z,4.75
2023-03-06T01:58:07.429Z,4.72
2023-03-06T02:03:15.235Z,4.67
2023-03-06T02:08:21.993Z,4.63
2023-03-06T02:13:25.318Z,4.59
2023-03-06T02:18:29.416Z,4.56
2023-03-06T02:23:43.439Z,4.55
2023-03-06T02:28:48.391Z,4.55
2023-03-06T02:34:06.330Z,4.57
2023-03-06T02:39:11.233Z,4.53
2023-03-06T02:44:15.841Z,4.48
2023-03-06T02:49:18.986Z,4.45
2023-03-06T02:54:22.415Z,4.46
2023-03-06T02:59:27.070Z,4.47
2023-03-06T03:04:30.576Z,4.47
2023-03-06T03:09:37.057Z,4.50
2023-03-06T03:14:42.355Z,4.46
2023-03-06T03:19:45.881Z,4.40
2023-03-06T03:24:49.507Z,4.37
2023-03-06T03:29:54.163Z,4.33
2023-03-06T03:34:57.878Z,4.28
2023-03-06T03:40:01.562Z,4.26
2023-03-06T03:45:07.190Z,4.27
2023-03-06T03:50:12.203Z,4.22
2023-03-06T03:55:15.394Z,4.19
2023-03-06T04:00:20.784Z,4.18
2023-03-06T04:05:24.324Z,4.14
2023-03-06T04:10:27.502Z,4.15
2023-03-06T04:15:32.159Z,4.12
2023-03-06T04:20:35.494Z,4.09
2023-03-06T04:25:39.186Z,4.10
2023-03-06T04:30:43.789Z,4.15
2023-03-06T04:35:47.077Z,4.17
2023-03-06T04:40:50.758Z,4.18
2023-03-06T04:45:55.500Z,4.10
2023-03-06T04:50:58.992Z,4.06
2023-03-06T04:56:02.267Z,4.05
2023-03-06T05:01:07.420Z,4.02
2023-03-06T05:06:10.691Z,3.97
2023-03-06T05:11:13.933Z,3.95
2023-03-06T05:16:18.778Z,3.90
2023-03-06T05:21:21.986Z,3.88
2023-03-06T05:26:25.096Z,3.83
2023-03-06T05:31:29.904Z,3.77
2023-03-06T05:36:33.346Z,3.69
2023-03-06T05:41:36.840Z,3.60
2023-03-06T05:46:41.635Z,3.60
2023-03-06T05:51:44.943Z,3.69
2023-03-06T05:56:48.196Z,3.77
2023-03-06T06:01:52.799Z,3.81
2023-03-06T06:06:58.597Z,3.80
2023-03-06T06:12:04.406Z,3.84
2023-03-06T06:17:11.368Z,3.92
2023-03-06T06:22:15.030Z,3.97
2023-03-06T06:27:18.567Z,4.00
2023-03-06T06:32:28.864Z,4.08
2023-03-06T06:37:32.277Z,4.17
2023-03-06T06:42:39.964Z,4.24
2023-03-06T06:47:46.252Z,4.29
2023-03-06T06:52:49.589Z,4.36
2023-03-06T06:57:52.841Z,4.38
2023-03-06T07:02:59.717Z,4.45
2023-03-06T07:08:03.145Z,4.51
2023-03-06T07:13:06.428Z,4.50
2023-03-06T07:18:11.184Z,4.59
2023-03-06T07:23:14.565Z,4.63
2023-03-06T07:28:19.374Z,4.65
2023-03-06T07:33:24.263Z,4.71
2023-03-06T07:38:27.568Z,4.75
2023-03-06T07:43:30.826Z,4.79
2023-03-06T07:48:35.844Z,4.78
2023-03-06T07:53:39.179Z,4.88
2023-03-06T07:58:44.783Z,4.94
2023-03-06T08:03:50.263Z,4.93
2023-03-06T08:08:55.392Z,5.03
2023-03-06T08:13:59.587Z,5.12
2023-03-06T08:19:04.158Z,5.22
2023-03-06T08:24:08.535Z,5.21
2023-03-06T08:29:12.921Z,5.26
2023-03-06T08:34:19.259Z,5.33
2023-03-06T08:39:23.721Z,5.37
2023-03-06T08:44:26.931Z,5.39
2023-03-06T08:49:31.770Z,5.44
2023-03-06T08:54:36.161Z,5.54
2023-03-06T08:59:39.635Z,5.54
2023-03-06T09:04:44.373Z,5.53
2023-03-06T09:09:47.909Z,5.45
2023-03-06T09:14:51.488Z,5.60
2023-03-06T09:19:56.152Z,5.65
2023-03-06T09:25:02.960Z,5.66
2023-03-06T09:30:09.286Z,5.69
2023-03-06T09:35:15.882Z,5.78
2023-03-06T09:40:26.413Z,5.88
2023-03-06T09:45:38.309Z,6.22
2023-03-06T09:50:47.699Z,6.60
2023-03-06T09:55:58.301Z,6.80
2023-03-06T10:01:05.784Z,6.95
2023-03-06T10:06:17.257Z,7.03
2023-03-06T10:11:26.271Z,7.21
2023-03-06T10:16:31.863Z,7.34
2023-03-06T10:21:44.816Z,7.45
2023-03-06T10:26:53.896Z,7.48
2023-03-06T10:32:05.592Z,7.48
2023-03-06T10:37:20.357Z,7.48
2023-03-06T10:42:24.586Z,7.52
2023-03-06T10:47:35.340Z,7.68
2023-03-06T10:52:41.283Z,7.73
2023-03-06T10:57:44.379Z,7.79
2023-03-06T11:02:47.561Z,8.02
2023-03-06T11:07:57.529Z,8.22
2023-03-06T11:13:02.890Z,8.30
2023-03-06T11:18:28.924Z,8.40
2023-03-06T11:23:40.062Z,8.37
2023-03-06T11:28:47.444Z,8.40
2023-03-06T11:33:56.009Z,8.46
2023-03-06T11:39:01.672Z,8.40
2023-03-06T11:44:15.636Z,8.39
2023-03-06T11:49:24.042Z,8.32
2023-03-06T11:54:28.674Z,8.48
2023-03-06T11:59:52.617Z,8.59
2023-03-06T12:05:10.996Z,8.70
2023-03-06T12:10:20.602Z,8.57
2023-03-06T12:15:41.279Z,8.25
2023-03-06T12:20:56.957Z,8.18
2023-03-06T12:26:10.821Z,8.11
2023-03-06T12:31:46.392Z,8.26
2023-03-06T12:37:02.438Z,8.00
2023-03-06T12:42:32.766Z,7.81
2023-03-06T12:47:43.170Z,7.73
2023-03-06T12:52:49.309Z,7.81
2023-03-06T12:57:54.632Z,7.90
2023-03-06T13:03:13.014Z,7.85
2023-03-06T13:08:32.980Z,7.80
2023-03-06T13:13:45.335Z,7.72
2023-03-06T13:18:52.820Z,7.73
2023-03-06T13:24:06.319Z,7.63
2023-03-06T13:29:42.639Z,7.59
2023-03-06T13:34:48.870Z,7.45
2023-03-06T13:40:16.640Z,7.21
2023-03-06T13:45:26.088Z,7.19
2023-03-06T13:50:38.107Z,7.14
2023-03-06T13:55:51.998Z,7.22
2023-03-06T14:01:35.163Z,7.25
2023-03-06T14:07:06.521Z,7.20
2023-03-06T14:12:20.368Z,7.22
2023-03-06T14:17:29.411Z,7.27
2023-03-06T14:22:33.929Z,7.41
2023-03-06T14:27:45.764Z,7.49
2023-03-06T14:32:51.499Z,7.51
2023-03-06T14:37:59.799Z,7.48
2023-03-06T14:43:21.670Z,7.54
2023-03-06T14:48:27.065Z,7.49
2023-03-06T14:53:33.980Z,7.58
2023-03-06T14:58:45.536Z,7.61
2023-03-06T15:03:54.430Z,7.60
2023-03-06T15:09:04.753Z,7.56
2023-03-06T15:14:20.048Z,7.55
2023-03-06T15:19:24.192Z,7.49
2023-03-06T15:24:35.318Z,7.45
2023-03-06T15:29:40.213Z,7.48
2023-03-06T15:34:43.523Z,7.37
2023-03-06T15:40:08.209Z,7.37
2023-03-06T15:45:17.157Z,7.31
2023-03-06T15:50:21.992Z,7.22
2023-03-06T15:55:27.650Z,7.07
2023-03-06T16:00:34.243Z,7.01
2023-03-06T16:05:37.518Z,6.89
2023-03-06T16:10:43.806Z,6.80
2023-03-06T16:15:49.372Z,6.66
2023-03-06T16:20:52.645Z,6.58
2023-03-06T16:25:57.509Z,6.58
2023-03-06T16:31:01.086Z,6.56
2023-03-06T16:36:13.483Z,6.51
2023-03-06T16:41:19.169Z,6.50
2023-03-06T16:46:25.221Z,6.52
2023-03-06T16:51:28.458Z,6.45
2023-03-06T16:56:33.038Z,6.31
2023-03-06T17:01:36.348Z,6.26
2023-03-06T17:06:41.870Z,6.30
2023-03-06T17:11:46.985Z,6.31
2023-03-06T17:16:50.543Z,6.27
2023-03-06T17:21:53.942Z,6.12
2023-03-06T17:26:58.689Z,5.98
2023-03-06T17:32:02.157Z,5.96
2023-03-06T17:37:05.566Z,5.95
2023-03-06T17:42:10.349Z,5.97
2023-03-06T17:47:13.860Z,5.91
2023-03-06T17:52:17.046Z,5.74
2023-03-06T17:57:22.189Z,5.62
2023-03-06T18:02:25.806Z,5.38
2023-03-06T18:07:29.136Z,5.37
2023-03-06T18:12:33.946Z,5.33
2023-03-06T18:17:37.321Z,5.31
2023-03-06T18:22:40.631Z,5.39
2023-03-06T18:27:45.555Z,5.43
2023-03-06T18:32:48.763Z,5.40
2023-03-06T18:37:55.780Z,5.37
2023-03-06T18:43:00.814Z,5.34
2023-03-06T18:48:05.013Z,5.33
2023-03-06T18:53:08.611Z,5.31
2023-03-06T18:58:14.249Z,5.33
2023-03-06T19:03:21.070Z,5.36
2023-03-06T19:08:25.002Z,5.40
2023-03-06T19:13:29.913Z,5.29
2023-03-06T19:18:33.263Z,5.19
2023-03-06T19:23:36.484Z,5.05
2023-03-06T19:28:43.381Z,4.98
2023-03-06T19:33:48.605Z,4.91
2023-03-06T19:38:55.189Z,4.88
2023-03-06T19:44:02.498Z,4.80
2023-03-06T19:49:12.017Z,4.72
2023-03-06T19:54:16.951Z,4.66
2023-03-06T19:59:21.563Z,4.62
2023-03-06T20:04:26.340Z,4.55
2023-03-06T20:09:32.374Z,4.37
2023-03-06T20:14:37.685Z,4.21
2023-03-06T20:19:40.925Z,4.01
2023-03-06T20:24:44.419Z,3.90
2023-03-06T20:29:49.684Z,3.82
2023-03-06T20:34:52.765Z,3.68
2023-03-06T20:39:56.256Z,3.59
2023-03-06T20:45:00.738Z,3.54
2023-03-06T20:50:04.202Z,3.47
2023-03-06T20:55:08.341Z,3.39
2023-03-06T21:00:14.185Z,3.34
2023-03-06T21:05:17.882Z,3.30
2023-03-06T21:10:21.496Z,3.26
2023-03-06T21:15:30.109Z,3.25
2023-03-06T21:20:34.559Z,3.25
2023-03-06T21:25:38.159Z,3.21
2023-03-06T21:30:43.582Z,3.20
2023-03-06T21:35:47.077Z,3.19
2023-03-06T21:40:50.340Z,3.22
2023-03-06T21:45:58.399Z,3.24
2023-03-06T21:51:09.987Z,3.19
2023-03-06T21:56:14.903Z,3.11
2023-03-06T22:01:21.939Z,3.09
2023-03-06T22:06:27.438Z,3.09
2023-03-06T22:11:31.481Z,3.07
2023-03-06T22:16:36.675Z,3.08
2023-03-06T22:21:40.053Z,3.07
2023-03-06T22:26:43.270Z,3.04
2023-03-06T22:31:47.920Z,3.04
2023-03-06T22:36:51.182Z,3.04
2023-03-06T22:41:56.321Z,3.10
2023-03-06T22:47:01.004Z,3.09
2023-03-06T22:52:04.302Z,3.15
2023-03-06T22:57:07.531Z,3.26
2023-03-06T23:02:12.190Z,3.34
2023-03-06T23:07:15.489Z,3.37
2023-03-06T23:12:18.693Z,3.46
2023-03-06T23:17:23.412Z,3.50
2023-03-06T23:22:27.900Z,3.56
2023-03-06T23:27:31.034Z,3.59
2023-03-06T23:32:36.077Z,3.69
2023-03-06T23:37:39.270Z,3.75
2023-03-06T23:42:42.583Z,3.74
2023-03-06T23:48:07.096Z,3.74
2023-03-06T23:53:28.577Z,3.73
2023-03-06T23:58:50.541Z,3.76
